Time;durP1;ratioP1;P1;durP2;ratioP2;P2;SDS_P1;SDS_P2;PMS_P1;PMS_P2;Temp;Humidity;BMP_temperature;BMP_pressure;BME280_temperature;BME280_humidity;BME280_pressure;Samples;Min_cycle;Max_cycle;Signal;HPM_P1;HPM_P2
2023/01/23 06:07:37;;;;;;;20.90;6.20;;;;;;;-2.78;100.00;100502.10;107749;1273;22533;-73
2023/01/23 06:10:09;;;;;;;18.00;5.70;;;;;;;-2.79;100.00;100516.77;107322;1273;1002504;-74
2023/01/23 06:12:36;;;;;;;19.10;6.30;;;;;;;-2.78;100.00;100517.10;106984;1273;1003360;-74
2023/01/23 06:15:04;;;;;;;16.30;6.30;;;;;;;-2.80;100.00;100511.68;107805;1273;25242;-75
2023/01/23 06:17:32;;;;;;;16.90;6.30;;;;;;;-2.80;100.00;100512.59;107716;1274;22489;-73
2023/01/23 06:19:59;;;;;;;15.20;5.80;;;;;;;-2.79;100.00;100510.25;107700;1267;223067;-74
2023/01/23 06:22:27;;;;;;;20.50;7.70;;;;;;;-2.77;100.00;100504.86;107949;1273;22823;-76
2023/01/23 06:25:10;;;;;;;20.00;7.40;;;;;;;-2.74;100.00;100491.15;107298;1273;1002604;-75
2023/01/23 06:27:37;;;;;;;19.90;6.80;;;;;;;-2.72;100.00;100489.44;107979;1273;23808;-74
2023/01/23 06:30:07;;;;;;;16.40;7.20;;;;;;;-2.70;100.00;100480.68;108159;1266;22748;-74
2023/01/23 06:32:42;;;;;;;18.90;6.10;;;;;;;-2.66;100.00;100469.74;107392;1273;1003620;-73
2023/01/23 06:35:10;;;;;;;16.50;6.40;;;;;;;-2.63;100.00;100468.89;107414;1273;1003309;-75
2023/01/23 06:37:41;;;;;;;21.60;8.00;;;;;;;-2.60;100.00;100463.09;108120;1251;22558;-75
2023/01/23 06:40:12;;;;;;;20.30;8.20;;;;;;;-2.59;100.00;100457.23;108200;1273;22532;-75
2023/01/23 06:42:41;;;;;;;21.60;7.90;;;;;;;-2.57;100.00;100454.27;108219;1270;22524;-75
2023/01/23 06:45:10;;;;;;;19.40;7.90;;;;;;;-2.54;100.00;100446.20;107488;1273;1002818;-74
2023/01/23 06:47:37;;;;;;;21.40;8.10;;;;;;;-2.52;100.00;100437.62;108032;1269;25539;-73
2023/01/23 06:50:05;;;;;;;23.10;8.90;;;;;;;-2.49;100.00;100435.52;107480;1267;1003187;-74
2023/01/23 06:52:36;;;;;;;28.60;10.40;;;;;;;-2.46;100.00;100432.73;108228;1273;22604;-74
2023/01/23 06:55:05;;;;;;;22.80;7.90;;;;;;;-2.42;100.00;100429.52;107511;1273;1002872;-73
2023/01/23 06:57:33;;;;;;;24.00;8.80;;;;;;;-2.38;100.00;100422.95;107703;1251;22523;-73
2023/01/23 07:00:01;;;;;;;21.40;8.50;;;;;;;-2.37;100.00;100423.79;107883;1270;22472;-75
2023/01/23 07:02:30;;;;;;;29.00;10.50;;;;;;;-2.36;100.00;100417.40;108268;1270;25513;-75
2023/01/23 07:04:57;;;;;;;19.30;8.50;;;;;;;-2.33;100.00;100417.06;107211;1273;1003301;-75
2023/01/23 07:07:25;;;;;;;30.70;10.60;;;;;;;-2.31;100.00;100410.37;106903;1274;1003376;-74
2023/01/23 07:09:53;;;;;;;25.30;10.50;;;;;;;-2.30;100.00;100408.73;106688;1273;1002747;-73
2023/01/23 07:12:25;;;;;;;21.60;8.10;;;;;;;-2.30;100.00;100408.59;107010;1267;1003168;-73
2023/01/23 07:14:53;;;;;;;23.00;8.40;;;;;;;-2.29;100.00;100409.79;107754;1268;25429;-72
2023/01/23 07:17:24;;;;;;;25.20;11.00;;;;;;;-2.27;100.00;100404.02;108067;1270;24250;-74
2023/01/23 07:19:51;;;;;;;26.20;10.60;;;;;;;-2.26;100.00;100407.19;107464;1267;1002663;-75
2023/01/23 07:22:21;;;;;;;26.70;10.30;;;;;;;-2.26;100.00;100406.28;108202;1270;22698;-75
2023/01/23 07:24:48;;;;;;;26.10;9.50;;;;;;;-2.23;100.00;100398.15;107294;1268;25343;-70
2023/01/23 07:27:16;;;;;;;22.70;8.60;;;;;;;-2.19;100.00;100393.55;106590;1266;1015112;-70
2023/01/23 07:29:45;;;;;;;25.50;9.20;;;;;;;-2.15;100.00;100389.09;106960;1267;24086;-72
2023/01/23 07:32:12;;;;;;;22.30;9.40;;;;;;;-2.13;100.00;100389.85;106652;1267;1002493;-71
2023/01/23 07:34:51;;;;;;;25.50;8.60;;;;;;;-2.12;100.00;100384.69;106603;1267;1002572;-76
2023/01/23 07:37:20;;;;;;;23.40;8.90;;;;;;;-2.14;100.00;100380.20;107728;1273;24155;-70
2023/01/23 07:39:49;;;;;;;19.20;8.00;;;;;;;-2.13;100.00;100384.88;107500;1266;25223;-71
2023/01/23 07:42:17;;;;;;;24.10;8.80;;;;;;;-2.09;100.00;100380.46;106620;1267;1003632;-71
2023/01/23 07:44:46;;;;;;;22.30;8.50;;;;;;;-2.05;100.00;100380.23;107451;1267;25236;-74
2023/01/23 07:47:14;;;;;;;16.60;6.70;;;;;;;-2.01;100.00;100378.79;107389;1270;25350;-71
2023/01/23 07:49:41;;;;;;;20.60;8.20;;;;;;;-1.95;100.00;100377.21;107250;1273;24324;-72
2023/01/23 07:52:09;;;;;;;19.30;7.50;;;;;;;-1.91;100.00;100378.80;107191;1269;23906;-69
2023/01/23 07:54:36;;;;;;;20.50;8.40;;;;;;;-1.89;100.00;100376.91;106514;1267;1002900;-71
2023/01/23 07:57:03;;;;;;;22.60;8.40;;;;;;;-1.87;100.00;100369.55;106526;1267;1002915;-68
2023/01/23 07:59:31;;;;;;;24.30;9.70;;;;;;;-1.85;100.00;100363.77;107109;1267;25426;-69
2023/01/23 08:01:58;;;;;;;19.20;8.70;;;;;;;-1.84;100.00;100366.23;106540;1267;1003287;-70
2023/01/23 08:04:37;;;;;;;18.70;7.90;;;;;;;-1.83;100.00;100358.92;107777;1273;24324;-74
2023/01/23 08:36:14;;;;;;;22.10;8.10;;;;;;;-1.76;100.00;100309.24;108048;1257;22520;-76
2023/01/23 08:38:42;;;;;;;20.80;8.40;;;;;;;-1.79;100.00;100332.36;106891;1272;1003610;-74
2023/01/23 09:17:08;;;;;;;24.50;8.80;;;;;;;-1.86;100.00;100299.70;106336;1274;1016006;-68
2023/01/23 09:19:36;;;;;;;24.50;10.10;;;;;;;-1.83;100.00;100320.41;106312;1274;1003717;-71
2023/01/23 09:22:04;;;;;;;24.50;9.90;;;;;;;-1.82;100.00;100322.98;106225;1274;1002935;-71
2023/01/23 09:24:31;;;;;;;25.90;11.10;;;;;;;-1.83;100.00;100324.46;106380;1274;1002963;-67
2023/01/23 09:26:59;;;;;;;26.40;10.60;;;;;;;-1.82;100.00;100326.35;107131;1274;25504;-69
2023/01/23 09:29:26;;;;;;;23.30;10.40;;;;;;;-1.80;100.00;100328.52;106412;1274;1003053;-68
2023/01/23 09:31:54;;;;;;;24.00;9.90;;;;;;;-1.81;100.00;100326.63;107124;1274;25354;-68
2023/01/23 09:34:22;;;;;;;23.10;8.80;;;;;;;-1.83;100.00;100326.73;106910;1275;22670;-70
2023/01/23 09:36:49;;;;;;;22.20;10.20;;;;;;;-1.85;100.00;100326.70;107078;1274;25344;-68
2023/01/23 09:39:26;;;;;;;26.90;10.60;;;;;;;-1.86;100.00;100323.39;107211;1274;25348;-68
2023/01/23 09:42:13;;;;;;;26.40;10.90;;;;;;;-1.84;100.00;100317.30;106968;1275;24222;-70
2023/01/23 09:44:43;;;;;;;27.80;11.30;;;;;;;-1.83;100.00;100323.03;107135;1273;27482;-70
2023/01/23 09:47:20;;;;;;;26.80;11.20;;;;;;;-1.81;100.00;100320.31;107268;1273;25442;-70
2023/01/23 09:49:57;;;;;;;27.80;12.10;;;;;;;-1.80;100.00;100316.70;107145;1273;22735;-71
2023/01/23 09:52:30;;;;;;;24.60;11.60;;;;;;;-1.79;100.00;100319.27;106497;1273;1003944;-71
2023/01/23 09:55:01;;;;;;;29.30;12.60;;;;;;;-1.78;100.00;100320.43;107453;1271;24180;-69
2023/01/23 09:57:42;;;;;;;25.40;11.90;;;;;;;-1.78;100.00;100324.70;107299;1267;22544;-68
2023/01/23 10:00:30;;;;;;;30.50;12.00;;;;;;;-1.78;100.00;100318.72;106426;1272;1002489;-71
2023/01/23 10:03:01;;;;;;;21.70;9.90;;;;;;;-1.78;100.00;100316.74;106617;1273;1003515;-69
2023/01/23 10:05:41;;;;;;;24.30;10.40;;;;;;;-1.78;100.00;100319.77;107087;1273;22615;-68
2023/01/23 10:08:37;;;;;;;22.40;9.60;;;;;;;-1.81;100.00;100312.66;107116;1267;25108;-72
2023/01/23 10:11:12;;;;;;;26.00;11.20;;;;;;;-1.80;100.00;100306.08;106516;1273;1003454;-71
2023/01/23 10:13:47;;;;;;;25.40;10.00;;;;;;;-1.79;100.00;100313.80;107208;1267;25337;-71
2023/01/23 10:16:14;;;;;;;19.50;8.70;;;;;;;-1.78;100.00;100315.35;107378;1273;26505;-70
2023/01/23 10:19:21;;;;;;;26.60;9.10;;;;;;;-1.77;100.00;100318.80;106467;1273;1015536;-70
2023/01/23 10:21:56;;;;;;;20.10;8.80;;;;;;;-1.75;100.00;100305.11;107155;1273;24777;-70
2023/01/23 10:24:51;;;;;;;22.30;9.30;;;;;;;-1.75;100.00;100314.48;107124;1273;22540;-70
2023/01/23 10:27:25;;;;;;;19.90;8.80;;;;;;;-1.72;100.00;100304.23;106578;1273;1003135;-74
2023/01/23 10:30:02;;;;;;;21.20;8.50;;;;;;;-1.70;100.00;100304.66;107635;1273;22589;-75
2023/01/23 10:32:31;;;;;;;18.80;8.20;;;;;;;-1.71;100.00;100300.26;107886;1273;22681;-75
2023/01/23 10:35:52;;;;;;;20.80;9.10;;;;;;;-1.72;100.00;100301.20;108166;1272;24209;-73
2023/01/23 10:38:47;;;;;;;17.80;8.70;;;;;;;-1.75;100.00;100290.24;107308;1273;23914;-71
2023/01/23 10:41:18;;;;;;;19.40;8.20;;;;;;;-1.75;100.00;100296.10;107190;1273;25930;-69
2023/01/23 10:43:50;;;;;;;18.70;8.70;;;;;;;-1.75;100.00;100309.02;107996;1273;24209;-75
2023/01/23 10:46:20;;;;;;;22.60;10.00;;;;;;;-1.73;100.00;100314.02;107528;1273;1003743;-75
2023/01/23 10:48:49;;;;;;;23.60;11.20;;;;;;;-1.73;100.00;100320.16;108270;1272;24323;-78
2023/01/23 10:51:26;;;;;;;23.10;10.90;;;;;;;-1.76;100.00;100322.14;108319;1273;22531;-75
2023/01/23 10:54:19;;;;;;;24.40;11.80;;;;;;;-1.80;100.00;100321.45;108441;1270;22561;-75
2023/01/23 10:57:03;;;;;;;27.10;13.00;;;;;;;-1.80;100.00;100315.62;108001;1273;25531;-75
2023/01/23 10:59:31;;;;;;;29.50;13.20;;;;;;;-1.82;100.00;100331.46;108102;1273;26533;-70
2023/01/23 11:02:26;;;;;;;23.80;12.60;;;;;;;-1.85;100.00;100331.67;107256;1270;25424;-69
2023/01/23 11:04:54;;;;;;;23.40;11.90;;;;;;;-1.88;100.00;100328.64;107252;1267;22548;-68
2023/01/23 11:07:27;;;;;;;26.10;12.60;;;;;;;-1.91;100.00;100335.64;107891;1273;24123;-74
2023/01/23 11:10:07;;;;;;;26.60;13.30;;;;;;;-1.89;100.00;100337.86;108234;1273;22524;-74
2023/01/23 11:12:45;;;;;;;24.40;12.20;;;;;;;-1.87;100.00;100340.27;107300;1270;25420;-72
2023/01/23 11:15:18;;;;;;;24.50;12.10;;;;;;;-1.85;100.00;100345.62;107169;1266;22746;-70
2023/01/23 11:17:46;;;;;;;24.90;12.20;;;;;;;-1.85;100.00;100350.90;107086;1273;25484;-72
2023/01/23 11:20:32;;;;;;;21.30;10.80;;;;;;;-1.87;100.00;100352.61;106375;1273;1002659;-70
2023/01/23 11:22:59;;;;;;;25.20;12.20;;;;;;;-1.86;100.00;100353.12;107341;1273;22523;-70
2023/01/23 11:25:32;;;;;;;24.80;11.80;;;;;;;-1.84;100.00;100360.07;107265;1273;25425;-69
2023/01/23 11:28:01;;;;;;;23.80;11.60;;;;;;;-1.86;100.00;100364.74;107368;1273;25429;-70
2023/01/23 11:30:45;;;;;;;29.60;11.80;;;;;;;-1.86;100.00;100373.58;107231;1273;23021;-69
2023/01/23 11:33:30;;;;;;;23.60;11.20;;;;;;;-1.85;100.00;100374.80;106528;1273;1003184;-69
2023/01/23 11:36:18;;;;;;;25.70;13.20;;;;;;;-1.84;100.00;100386.20;107108;1274;25246;-69
2023/01/23 11:39:18;;;;;;;22.10;11.90;;;;;;;-1.83;100.00;100391.64;107111;1267;26523;-69
2023/01/23 11:41:46;;;;;;;24.20;12.50;;;;;;;-1.84;100.00;100392.73;107389;1270;25429;-69
2023/01/23 11:44:18;;;;;;;20.10;10.70;;;;;;;-1.86;100.00;100409.64;106418;1267;1003784;-69
2023/01/23 11:46:51;;;;;;;23.70;11.20;;;;;;;-1.86;100.00;100410.52;107262;1267;25424;-68
2023/01/23 11:49:21;;;;;;;22.40;11.20;;;;;;;-1.86;100.00;100412.27;106720;1270;1003428;-75
2023/01/23 11:51:48;;;;;;;21.50;10.30;;;;;;;-1.84;100.00;100417.13;107930;1273;25434;-73
2023/01/23 11:54:53;;;;;;;21.40;10.80;;;;;;;-1.86;100.00;100417.59;108018;1267;22557;-73
2023/01/23 11:57:35;;;;;;;20.80;9.60;;;;;;;-1.85;100.00;100415.39;108072;1273;24393;-73
2023/01/23 12:00:51;;;;;;;17.40;8.90;;;;;;;-1.81;100.00;100425.11;107298;1273;1003011;-74
2023/01/23 12:03:51;;;;;;;20.10;10.20;;;;;;;-1.78;100.00;100416.63;107023;1268;25996;-69
2023/01/23 12:06:33;;;;;;;20.80;9.40;;;;;;;-1.79;100.00;100424.97;107212;1270;25246;-70
2023/01/23 12:09:16;;;;;;;24.80;11.40;;;;;;;-1.81;100.00;100439.55;106422;1273;1003044;-70
2023/01/23 12:12:08;;;;;;;24.70;11.50;;;;;;;-1.79;100.00;100445.66;106427;1269;1003051;-71
2023/01/23 12:14:52;;;;;;;25.30;9.70;;;;;;;-1.78;100.00;100447.00;106419;1273;1003597;-68
2023/01/23 12:17:50;;;;;;;19.40;9.80;;;;;;;-1.76;100.00;100456.63;108397;1266;24304;-73
2023/01/23 12:20:32;;;;;;;16.90;9.50;;;;;;;-1.75;100.00;100456.96;108135;1273;25411;-72
2023/01/23 12:23:51;;;;;;;22.00;10.10;;;;;;;-1.77;100.00;100464.81;108264;1270;22540;-73
2023/01/23 12:26:21;;;;;;;18.30;9.30;;;;;;;-1.75;100.00;100465.60;108072;1269;26627;-75
2023/01/23 12:29:30;;;;;;;21.60;9.70;;;;;;;-1.74;100.00;100482.68;108517;1267;22685;-73
2023/01/23 12:32:19;;;;;;;22.40;9.80;;;;;;;-1.72;100.00;100473.73;107803;1279;25313;-74
2023/01/23 12:35:18;;;;;;;20.30;9.60;;;;;;;-1.73;100.00;100481.05;108493;1267;25290;-75
2023/01/23 12:38:07;;;;;;;19.40;9.20;;;;;;;-1.76;100.00;100487.73;107928;1267;25444;-68
2023/01/23 12:40:45;;;;;;;24.10;10.10;;;;;;;-1.80;100.00;100495.58;107266;1270;22531;-66
2023/01/23 12:43:36;;;;;;;17.80;8.10;;;;;;;-1.84;100.00;100505.85;107011;1273;23886;-69
2023/01/23 12:46:13;;;;;;;18.40;8.20;;;;;;;-1.87;100.00;100512.37;106476;1270;1003496;-72
2023/01/23 12:48:48;;;;;;;20.30;9.50;;;;;;;-1.87;100.00;100520.52;107739;1272;22560;-74
2023/01/23 12:51:21;;;;;;;18.00;8.90;;;;;;;-1.88;100.00;100528.16;108316;1267;22822;-72
2023/01/23 12:53:51;;;;;;;19.90;9.90;;;;;;;-1.88;100.00;100524.64;108286;1273;22536;-74
2023/01/23 12:56:28;;;;;;;19.70;9.70;;;;;;;-1.87;100.00;100526.69;108407;1272;23108;-76
2023/01/23 12:59:00;;;;;;;27.30;12.20;;;;;;;-1.84;100.00;100527.95;107637;1267;1003743;-74
2023/01/23 13:01:56;;;;;;;22.10;11.20;;;;;;;-1.83;100.00;100522.60;108321;1270;22653;-73
2023/01/23 13:04:35;;;;;;;23.10;10.00;;;;;;;-1.83;100.00;100519.74;108266;1273;25427;-74
2023/01/23 13:07:54;;;;;;;20.60;9.20;;;;;;;-1.83;100.00;100527.86;108481;1270;25271;-74
2023/01/23 13:13:46;;;;;;;21.50;9.60;;;;;;;-1.87;100.00;100519.98;106520;1267;1003671;-70
2023/01/23 13:16:18;;;;;;;21.20;9.10;;;;;;;-1.87;100.00;100532.31;106475;1268;1003495;-69
2023/01/23 13:27:41;;;;;;;20.70;9.50;;;;;;;-1.91;100.00;100516.10;106578;1273;1003074;-68
2023/01/23 13:30:24;;;;;;;20.60;9.10;;;;;;;-1.90;100.00;100520.83;107215;1273;25454;-68
2023/01/23 13:32:59;;;;;;;18.60;8.90;;;;;;;-1.91;100.00;100513.61;107274;1267;25444;-69
2023/01/23 13:35:38;;;;;;;20.70;10.30;;;;;;;-1.94;100.00;100516.59;107238;1273;25332;-69
2023/01/23 13:38:21;;;;;;;23.30;10.40;;;;;;;-1.96;100.00;100517.20;106464;1270;1003737;-68
2023/01/23 13:41:03;;;;;;;24.80;10.70;;;;;;;-1.98;100.00;100512.02;107256;1266;25512;-67
2023/01/23 13:43:52;;;;;;;25.10;9.40;;;;;;;-1.99;100.00;100504.66;107154;1266;26482;-68
2023/01/23 13:46:36;;;;;;;17.70;7.90;;;;;;;-2.00;100.00;100502.76;107152;1273;22657;-69
2023/01/23 13:58:33;;;;;;;22.00;9.60;;;;;;;-2.03;100.00;100497.80;105204;1287;1003080;-68
2023/01/23 14:07:42;;;;;;;16.50;7.60;;;;;;;-1.97;100.00;100494.12;104247;1307;25367;-69
2023/01/23 14:10:32;;;;;;;15.50;6.80;;;;;;;-1.99;100.00;100490.02;103993;1311;24439;-69
2023/01/23 14:13:23;;;;;;;16.00;7.10;;;;;;;-2.00;100.00;100494.28;103537;1316;26562;-69
2023/01/23 18:16:35;;;;;;;23.20;10.80;;;;;;;-2.17;100.00;100576.04;105402;1296;557947;-75
2023/01/23 18:19:21;;;;;;;24.40;10.50;;;;;;;-2.04;100.00;100566.42;107056;1288;247549;-76
2023/01/23 18:21:52;;;;;;;21.50;9.80;;;;;;;-2.02;100.00;100572.15;107091;1288;25975;-72
2023/01/23 18:24:29;;;;;;;21.40;9.90;;;;;;;-2.00;100.00;100583.90;107029;1288;22784;-74
2023/01/23 18:27:16;;;;;;;22.40;10.30;;;;;;;-1.98;100.00;100587.13;107184;1288;24217;-74
2023/01/23 18:30:03;;;;;;;22.90;10.20;;;;;;;-1.95;100.00;100593.88;106440;1285;1003286;-74
2023/01/23 18:32:38;;;;;;;27.40;12.10;;;;;;;-1.91;100.00;100595.61;107378;1285;25474;-74
2023/01/23 18:35:25;;;;;;;;;;;;;;;-1.89;100.00;100601.54;107916;1277;22835;-75
2023/01/23 18:38:09;;;;;;;19.40;9.60;;;;;;;-1.89;100.00;100603.46;107769;1277;22734;-75
2023/01/23 18:41:03;;;;;;;22.40;10.80;;;;;;;-1.87;100.00;100607.27;107883;1276;24409;-74
2023/01/23 18:43:38;;;;;;;23.00;10.40;;;;;;;-1.84;100.00;100608.36;107854;1276;25574;-74
2023/01/23 18:46:11;;;;;;;21.10;10.30;;;;;;;-1.85;100.00;100611.59;107669;1276;22601;-73
2023/01/23 18:48:41;;;;;;;24.40;10.00;;;;;;;-1.85;100.00;100608.04;107746;1276;25446;-73
2023/01/23 18:51:19;;;;;;;24.30;11.00;;;;;;;-1.86;100.00;100606.30;107756;1276;22527;-74
2023/01/23 18:54:07;;;;;;;23.50;11.10;;;;;;;-1.87;100.00;100608.34;106808;1276;1003721;-75
2023/01/23 18:56:59;;;;;;;24.90;11.70;;;;;;;-1.88;100.00;100610.69;107749;1276;25382;-75
2023/01/23 18:59:35;;;;;;;27.30;11.00;;;;;;;-1.90;100.00;100610.73;107561;1276;26502;-74
2023/01/23 19:02:19;;;;;;;24.30;11.40;;;;;;;-1.88;100.00;100612.79;107640;1276;25451;-73
2023/01/23 19:05:04;;;;;;;27.90;12.20;;;;;;;-1.87;100.00;100611.53;107699;1276;23893;-73
2023/01/23 19:07:33;;;;;;;31.20;13.20;;;;;;;-1.87;100.00;100606.20;107684;1276;25450;-74
2023/01/23 19:10:06;;;;;;;27.20;12.10;;;;;;;-1.87;100.00;100606.21;107660;1276;25441;-74
2023/01/23 19:12:40;;;;;;;29.90;13.00;;;;;;;-1.89;100.00;100608.05;107699;1276;22567;-74
2023/01/23 19:15:41;;;;;;;31.30;14.10;;;;;;;-1.91;100.00;100609.75;107660;1276;25899;-75
2023/01/23 19:18:34;;;;;;;25.00;12.60;;;;;;;-1.92;100.00;100607.66;107422;1276;23878;-74
2023/01/23 19:21:28;;;;;;;29.80;13.30;;;;;;;-1.92;100.00;100607.99;107789;1254;22577;-75
2023/01/23 19:23:59;;;;;;;26.00;12.20;;;;;;;-1.92;100.00;100608.92;106931;1276;1003100;-74
2023/01/23 19:26:30;;;;;;;27.50;12.00;;;;;;;-1.92;100.00;100608.76;107720;1276;25394;-75
2023/01/23 19:29:01;;;;;;;26.80;11.60;;;;;;;-1.92;100.00;100612.62;107733;1276;22487;-75
2023/01/23 19:31:48;;;;;;;27.30;11.90;;;;;;;-1.92;100.00;100612.07;107525;1276;22652;-75
2023/01/23 19:34:32;;;;;;;25.70;10.90;;;;;;;-1.93;100.00;100614.08;107621;1276;25337;-75
2023/01/23 19:37:02;;;;;;;24.20;10.80;;;;;;;-1.93;100.00;100620.63;106837;1276;1003364;-75
2023/01/23 19:39:32;;;;;;;24.60;10.30;;;;;;;-1.94;100.00;100626.84;107676;1276;23871;-74
2023/01/23 19:42:01;;;;;;;24.20;10.80;;;;;;;-1.94;100.00;100627.75;107688;1276;25252;-75
2023/01/23 19:44:30;;;;;;;21.40;9.60;;;;;;;-1.94;100.00;100630.05;107495;1276;24324;-74
2023/01/23 19:46:58;;;;;;;23.80;10.30;;;;;;;-1.95;100.00;100635.02;107595;1276;25994;-74
2023/01/23 19:49:27;;;;;;;23.20;10.20;;;;;;;-1.94;100.00;100639.78;107681;1276;25495;-74
2023/01/23 19:51:56;;;;;;;23.40;9.90;;;;;;;-1.94;100.00;100646.84;107645;1276;25441;-75
2023/01/23 19:54:27;;;;;;;25.50;10.60;;;;;;;-1.95;100.00;100649.90;107664;1276;22581;-74
2023/01/23 19:56:56;;;;;;;27.80;11.00;;;;;;;-1.96;100.00;100655.59;107649;1276;24203;-74
2023/01/23 19:59:26;;;;;;;28.50;11.50;;;;;;;-1.97;100.00;100660.73;107721;1276;25440;-77
2023/01/23 20:01:58;;;;;;;21.70;9.80;;;;;;;-1.97;100.00;100666.93;107560;1276;22533;-75
2023/01/23 20:04:28;;;;;;;25.50;10.30;;;;;;;-1.98;100.00;100671.06;107670;1276;25242;-75
2023/01/23 20:06:57;;;;;;;22.80;9.80;;;;;;;-2.00;100.00;100682.30;107597;1276;26528;-75
2023/01/23 20:09:26;;;;;;;22.30;10.40;;;;;;;-2.06;100.00;100691.23;107652;1276;23819;-74
2023/01/23 20:11:56;;;;;;;21.20;10.90;;;;;;;-2.09;100.00;100691.05;106952;1276;1003247;-74
2023/01/23 20:14:26;;;;;;;25.10;10.40;;;;;;;-2.13;100.00;100706.91;107617;1276;26523;-73
2023/01/23 20:16:55;;;;;;;22.80;10.00;;;;;;;-2.15;100.00;100714.63;107043;1277;1002577;-74
2023/01/23 20:19:24;;;;;;;26.30;10.90;;;;;;;-2.17;100.00;100716.67;107608;1276;24176;-75
2023/01/23 20:21:52;;;;;;;27.60;11.70;;;;;;;-2.19;100.00;100725.06;107668;1277;23110;-74
2023/01/23 20:24:23;;;;;;;26.10;11.20;;;;;;;-2.20;100.00;100731.13;106964;1277;1002841;-75
2023/01/23 20:26:52;;;;;;;23.40;10.60;;;;;;;-2.23;100.00;100735.14;107742;1276;22524;-75
2023/01/23 20:29:21;;;;;;;27.20;12.00;;;;;;;-2.24;100.00;100735.56;106834;1276;1002955;-74
2023/01/23 20:31:50;;;;;;;23.10;11.00;;;;;;;-2.25;100.00;100738.77;107487;1276;22526;-74
2023/01/23 20:34:19;;;;;;;27.10;12.00;;;;;;;-2.25;100.00;100744.94;106866;1276;1002565;-75
2023/01/23 20:36:48;;;;;;;27.10;12.20;;;;;;;-2.25;100.00;100747.97;106951;1274;1003059;-75
2023/01/23 20:39:18;;;;;;;27.10;12.10;;;;;;;-2.25;100.00;100745.13;107696;1276;25445;-75
2023/01/23 20:41:47;;;;;;;27.30;12.80;;;;;;;-2.25;100.00;100745.15;107705;1277;23163;-74
2023/01/23 20:44:16;;;;;;;23.90;11.20;;;;;;;-2.24;100.00;100746.87;107731;1276;22579;-75
2023/01/23 20:46:44;;;;;;;24.50;11.90;;;;;;;-2.24;100.00;100745.42;106736;1277;1002957;-75
2023/01/23 20:49:13;;;;;;;25.90;11.70;;;;;;;-2.23;100.00;100748.77;107601;1276;25263;-74
2023/01/23 20:51:42;;;;;;;24.10;11.30;;;;;;;-2.22;100.00;100749.27;106813;1276;1002463;-74
2023/01/23 20:54:10;;;;;;;26.00;12.60;;;;;;;-2.22;100.00;100749.58;107545;1277;24230;-75
2023/01/23 20:56:39;;;;;;;26.20;12.60;;;;;;;-2.22;100.00;100747.11;107645;1276;23225;-76
2023/01/23 20:59:18;;;;;;;23.60;11.60;;;;;;;-2.21;100.00;100749.55;106809;1276;1002461;-74
2023/01/23 21:04:35;;;;;;;28.20;12.70;;;;;;;-2.17;100.00;100753.40;106667;1277;1002977;-74
2023/01/23 21:07:04;;;;;;;30.70;14.80;;;;;;;-2.15;100.00;100752.97;107579;1276;25444;-75
2023/01/23 21:09:34;;;;;;;26.30;12.00;;;;;;;-2.13;100.00;100752.67;106679;1276;1003771;-73
2023/01/23 21:12:03;;;;;;;28.60;12.20;;;;;;;-2.10;100.00;100747.95;107005;1277;1002701;-76
2023/01/23 21:14:32;;;;;;;26.70;11.90;;;;;;;-2.07;100.00;100747.66;107794;1276;23775;-73
2023/01/23 21:17:00;;;;;;;21.50;9.80;;;;;;;-2.05;100.00;100751.10;106934;1276;1003367;-74
2023/01/23 21:19:31;;;;;;;24.60;10.20;;;;;;;-2.04;100.00;100743.61;107776;1276;23931;-74
2023/01/23 21:21:59;;;;;;;22.50;10.00;;;;;;;-2.02;100.00;100748.98;107690;1277;24357;-73
2023/01/23 21:24:33;;;;;;;26.90;10.80;;;;;;;-1.99;100.00;100747.95;107762;1276;23894;-74
2023/01/23 21:27:03;;;;;;;29.10;10.90;;;;;;;-1.96;100.00;100747.64;107720;1276;26630;-74
2023/01/23 21:29:32;;;;;;;23.80;10.20;;;;;;;-1.94;100.00;100745.07;107659;1276;22553;-74
2023/01/23 21:32:01;;;;;;;23.40;9.80;;;;;;;-1.92;100.00;100746.36;106954;1277;1003244;-75
2023/01/23 21:34:30;;;;;;;22.50;8.60;;;;;;;-1.91;100.00;100748.27;106845;1276;1003784;-73
2023/01/23 21:36:59;;;;;;;17.40;8.00;;;;;;;-1.89;100.00;100745.01;107667;1277;26520;-74
2023/01/23 21:39:28;;;;;;;23.70;9.80;;;;;;;-1.87;100.00;100739.30;107645;1277;25441;-76
2023/01/23 21:41:57;;;;;;;22.40;9.20;;;;;;;-1.87;100.00;100735.05;107726;1276;25296;-76
2023/01/23 21:44:26;;;;;;;17.20;8.40;;;;;;;-1.88;100.00;100734.77;107719;1277;25445;-74
2023/01/23 21:46:54;;;;;;;21.00;8.60;;;;;;;-1.87;100.00;100733.45;107655;1277;22531;-75
2023/01/23 21:49:25;;;;;;;26.60;10.30;;;;;;;-1.86;100.00;100732.87;107649;1276;22516;-74
2023/01/23 21:51:54;;;;;;;24.90;10.20;;;;;;;-1.84;100.00;100732.42;107658;1276;25404;-75
2023/01/23 21:54:23;;;;;;;22.70;9.10;;;;;;;-1.83;100.00;100730.95;107609;1276;23842;-75
2023/01/23 21:56:53;;;;;;;22.80;10.00;;;;;;;-1.82;100.00;100728.28;107712;1277;26521;-74
2023/01/23 21:59:21;;;;;;;23.00;9.00;;;;;;;-1.82;100.00;100731.42;107707;1277;26517;-75
2023/01/23 22:01:50;;;;;;;21.30;9.00;;;;;;;-1.81;100.00;100729.61;107783;1276;22543;-75
